Time;durP1;ratioP1;P1;durP2;ratioP2;P2;SDS_P1;SDS_P2;PMS_P1;PMS_P2;Temp;Humidity;BMP_temperature;BMP_pressure;BME280_temperature;BME280_humidity;BME280_pressure;Samples;Min_cycle;Max_cycle;Signal;HPM_P1;HPM_P2
2022/11/09 00:01:37;;;;;;;3.45;2.53;;;13.60;99.90;;;;;;4934180;29;20062;-75
2022/11/09 00:04:04;;;;;;;4.72;1.95;;;13.70;99.90;;;;;;4951362;29;20040;-75
2022/11/09 00:06:31;;;;;;;4.47;1.88;;;13.60;99.90;;;;;;4951082;29;20051;-75
2022/11/09 00:08:57;;;;;;;6.03;2.05;;;13.60;99.90;;;;;;4950811;29;20038;-75
2022/11/09 00:11:23;;;;;;;2.47;1.85;;;13.70;99.90;;;;;;4951095;29;20083;-75
2022/11/09 00:13:50;;;;;;;2.83;2.30;;;13.70;99.90;;;;;;4950822;29;20388;-75
2022/11/09 00:16:18;;;;;;;4.68;1.38;;;13.70;99.90;;;;;;4950959;29;20116;-75
2022/11/09 00:18:47;;;;;;;5.13;1.88;;;13.60;99.90;;;;;;4950685;29;20042;-76
2022/11/09 00:21:15;;;;;;;3.40;1.38;;;13.60;99.90;;;;;;4931967;29;20036;-75
2022/11/09 00:23:41;;;;;;;3.13;1.55;;;13.60;99.90;;;;;;4931765;29;20036;-75
2022/11/09 00:26:08;;;;;;;5.03;1.95;;;13.60;99.90;;;;;;4914601;29;20481;-75
2022/11/09 00:28:34;;;;;;;3.40;1.42;;;13.60;99.90;;;;;;4930450;29;20050;-75
2022/11/09 00:31:02;;;;;;;2.88;2.30;;;13.60;99.90;;;;;;4949173;29;20115;-75
2022/11/09 00:33:28;;;;;;;1.05;1.00;;;13.70;99.90;;;;;;4933559;29;20034;-75
2022/11/09 00:35:54;;;;;;;2.17;1.02;;;13.70;99.90;;;;;;4933534;29;20544;-75
2022/11/09 00:38:20;;;;;;;7.47;2.38;;;13.70;99.90;;;;;;4933037;29;20107;-75
2022/11/09 00:40:46;;;;;;;6.75;1.33;;;13.70;99.90;;;;;;4936323;29;20063;-76
2022/11/09 00:43:12;;;;;;;13.40;2.08;;;13.70;99.90;;;;;;4948753;29;20040;-75
2022/11/09 00:45:39;;;;;;;5.75;2.28;;;13.70;99.90;;;;;;4950389;29;20047;-76
2022/11/09 00:48:06;;;;;;;1.08;0.88;;;13.70;99.90;;;;;;4933189;29;20119;-76
2022/11/09 00:50:32;;;;;;;4.07;1.58;;;13.70;99.90;;;;;;4932771;29;20030;-75
2022/11/09 00:52:59;;;;;;;2.22;1.58;;;13.70;99.90;;;;;;4933111;29;20048;-76
2022/11/09 00:55:26;;;;;;;2.05;1.73;;;13.70;99.90;;;;;;4933218;29;20032;-75
2022/11/09 00:57:52;;;;;;;7.85;1.95;;;13.60;99.90;;;;;;4933236;29;20561;-75
2022/11/09 01:00:22;;;;;;;2.13;1.23;;;13.50;99.90;;;;;;4932749;29;20115;-75
2022/11/09 01:02:51;;;;;;;6.20;1.65;;;13.50;99.90;;;;;;4932958;29;20028;-75
2022/11/09 01:05:18;;;;;;;2.13;1.02;;;13.50;99.90;;;;;;4932844;29;20119;-76
2022/11/09 01:07:43;;;;;;;3.15;1.75;;;13.40;99.90;;;;;;4949831;29;20038;-74
2022/11/09 01:10:10;;;;;;;2.65;1.08;;;13.40;99.90;;;;;;4932277;29;20035;-76
2022/11/09 01:12:36;;;;;;;7.15;1.58;;;13.30;99.90;;;;;;4949291;29;20102;-76
2022/11/09 01:15:02;;;;;;;6.60;1.38;;;13.30;99.90;;;;;;4949754;29;20481;-75
2022/11/09 01:17:28;;;;;;;5.40;1.85;;;13.30;99.90;;;;;;4949759;29;20100;-76
2022/11/09 01:19:54;;;;;;;8.50;2.00;;;13.30;99.90;;;;;;4949491;29;20035;-76
2022/11/09 01:22:21;;;;;;;6.22;2.17;;;13.30;99.90;;;;;;4949551;29;20074;-76
2022/11/09 01:24:47;;;;;;;8.13;1.73;;;13.40;99.90;;;;;;4932578;29;20050;-76
2022/11/09 01:27:13;;;;;;;3.53;1.55;;;13.50;99.90;;;;;;4932745;29;20807;-77
2022/11/09 01:29:39;;;;;;;6.32;1.92;;;13.50;99.90;;;;;;4932400;29;20078;-76
2022/11/09 01:32:05;;;;;;;4.18;1.55;;;13.50;99.90;;;;;;4949379;29;20033;-75
2022/11/09 01:34:31;;;;;;;4.95;2.45;;;13.50;99.90;;;;;;4916554;29;20020;-75
2022/11/09 01:36:59;;;;;;;4.60;2.38;;;13.50;99.90;;;;;;4932201;29;20035;-76
2022/11/09 01:39:25;;;;;;;4.45;1.85;;;13.50;99.90;;;;;;4932162;29;20052;-76
2022/11/09 01:41:51;;;;;;;6.18;1.42;;;13.60;99.90;;;;;;4932123;29;20023;-76
2022/11/09 01:44:19;;;;;;;3.63;1.00;;;13.60;99.90;;;;;;4949302;29;20027;-76
2022/11/09 01:47:02;;;;;;;2.60;1.20;;;13.70;99.90;;;;;;4932433;29;20036;-76
2022/11/09 01:49:44;;;;;;;1.98;1.27;;;13.70;99.90;;;;;;4949332;29;20028;-76
2022/11/09 01:52:18;;;;;;;4.88;2.50;;;13.70;99.90;;;;;;4932088;29;20032;-76
2022/11/09 01:54:48;;;;;;;3.92;1.02;;;13.60;99.90;;;;;;4949441;29;20055;-76
2022/11/09 01:57:20;;;;;;;1.23;1.08;;;13.60;99.90;;;;;;4949114;29;20032;-75
2022/11/09 01:59:51;;;;;;;4.10;1.38;;;13.50;99.90;;;;;;4931854;29;20031;-75
2022/11/09 02:02:17;;;;;;;1.95;1.60;;;13.50;99.90;;;;;;4931852;29;20024;-75
2022/11/09 02:05:05;;;;;;;2.13;0.85;;;13.40;99.90;;;;;;4931761;29;20055;-74
2022/11/09 02:07:32;;;;;;;2.50;1.30;;;13.40;99.90;;;;;;4931856;29;20042;-75
2022/11/09 02:10:10;;;;;;;5.53;2.08;;;13.30;99.90;;;;;;4931381;29;20055;-75
2022/11/09 02:12:36;;;;;;;9.73;1.95;;;13.30;99.90;;;;;;4931522;29;20032;-75
2022/11/09 02:15:05;;;;;;;2.25;1.50;;;13.20;99.90;;;;;;4931789;29;20034;-75
2022/11/09 02:17:33;;;;;;;1.77;1.30;;;13.10;99.90;;;;;;4931396;29;20110;-76
2022/11/09 02:19:59;;;;;;;1.92;0.90;;;13.10;99.90;;;;;;4915852;29;20040;-75
2022/11/09 02:22:26;;;;;;;3.08;1.55;;;13.00;99.90;;;;;;4931421;29;20155;-75
2022/11/09 02:24:52;;;;;;;3.50;1.42;;;13.00;99.90;;;;;;4931336;29;20019;-75
2022/11/09 02:27:19;;;;;;;4.22;1.40;;;13.00;99.90;;;;;;4931169;29;20042;-75
2022/11/09 02:29:47;;;;;;;6.75;1.80;;;12.90;99.90;;;;;;4931550;29;20035;-75
2022/11/09 02:32:19;;;;;;;1.85;1.27;;;13.00;99.90;;;;;;4931388;29;20031;-75
2022/11/09 02:34:46;;;;;;;7.25;1.10;;;13.00;99.90;;;;;;4915674;29;20027;-75
2022/11/09 02:37:12;;;;;;;3.17;1.13;;;13.00;99.90;;;;;;4931303;29;20035;-75
2022/11/09 02:39:38;;;;;;;5.10;2.03;;;13.00;99.90;;;;;;4933447;29;20040;-75
2022/11/09 02:42:14;;;;;;;2.75;1.17;;;13.00;99.90;;;;;;4948473;29;20035;-75
2022/11/09 02:44:44;;;;;;;4.70;2.33;;;13.10;99.90;;;;;;4931351;29;20062;-75
2022/11/09 02:47:10;;;;;;;2.92;1.38;;;13.10;99.90;;;;;;4943852;29;20055;-75
2022/11/09 02:49:36;;;;;;;4.50;1.42;;;13.00;99.90;;;;;;4915252;29;20016;-75
2022/11/09 02:52:02;;;;;;;8.80;1.95;;;12.90;99.90;;;;;;4947986;29;20032;-75
2022/11/09 02:54:29;;;;;;;1.52;1.35;;;12.80;99.90;;;;;;4931409;29;20409;-75
2022/11/09 02:56:56;;;;;;;7.65;2.53;;;12.80;99.90;;;;;;4930940;29;20020;-75
2022/11/09 02:59:22;;;;;;;12.80;3.05;;;12.80;99.90;;;;;;4915353;29;20048;-75
2022/11/09 03:01:47;;;;;;;7.80;1.50;;;12.80;99.90;;;;;;4931268;29;20032;-75
2022/11/09 03:04:13;;;;;;;5.20;1.48;;;12.80;99.90;;;;;;4931099;29;20044;-75
2022/11/09 03:06:40;;;;;;;3.08;1.08;;;12.90;99.90;;;;;;4930864;29;20043;-75
2022/11/09 03:09:11;;;;;;;1.92;1.50;;;12.80;99.90;;;;;;4931339;29;20035;-75
2022/11/09 03:11:39;;;;;;;5.47;2.38;;;12.90;99.90;;;;;;4930873;29;20031;-75
2022/11/09 03:14:08;;;;;;;10.70;2.53;;;12.90;99.90;;;;;;4899803;29;20020;-75
2022/11/09 03:16:36;;;;;;;4.82;1.95;;;12.90;99.90;;;;;;4930898;29;20114;-75
2022/11/09 03:19:05;;;;;;;11.98;2.22;;;13.00;99.90;;;;;;4931168;29;20031;-75
2022/11/09 03:21:31;;;;;;;9.77;1.48;;;13.00;99.90;;;;;;4915365;29;20035;-75
2022/11/09 03:23:57;;;;;;;4.80;1.42;;;13.10;99.90;;;;;;4930740;29;20030;-76
2022/11/09 03:26:23;;;;;;;4.05;1.95;;;13.10;99.90;;;;;;4930986;29;20075;-75
2022/11/09 03:28:50;;;;;;;3.00;1.02;;;13.10;99.90;;;;;;4930825;29;20032;-75
2022/11/09 03:31:16;;;;;;;7.32;2.10;;;13.10;99.90;;;;;;4930532;29;20035;-76
2022/11/09 03:33:44;;;;;;;2.50;1.45;;;13.10;99.90;;;;;;4931060;29;20024;-75
2022/11/09 03:36:10;;;;;;;1.67;1.02;;;13.10;99.90;;;;;;4934488;29;20055;-75
2022/11/09 03:38:37;;;;;;;8.32;1.75;;;13.00;99.90;;;;;;4918173;29;20054;-75
2022/11/09 03:41:03;;;;;;;4.75;1.75;;;12.90;99.90;;;;;;4934474;29;20094;-75
2022/11/09 03:43:30;;;;;;;2.60;1.10;;;12.90;99.90;;;;;;4934422;29;20126;-75
2022/11/09 03:45:56;;;;;;;6.30;1.45;;;12.90;99.90;;;;;;4951627;29;20032;-75
2022/11/09 03:48:22;;;;;;;6.72;1.27;;;12.90;99.90;;;;;;4934071;29;20049;-75
2022/11/09 03:50:48;;;;;;;6.95;1.73;;;12.90;99.90;;;;;;4934454;29;20055;-75
2022/11/09 03:53:14;;;;;;;7.38;2.88;;;12.90;99.90;;;;;;4934377;29;20079;-75
2022/11/09 03:55:40;;;;;;;8.57;2.03;;;12.90;99.90;;;;;;4951271;29;20032;-75
2022/11/09 03:58:08;;;;;;;3.22;1.60;;;13.00;99.90;;;;;;4950980;29;20036;-76
2022/11/09 04:00:34;;;;;;;11.38;2.35;;;13.00;99.90;;;;;;4934135;29;20031;-75
2022/11/09 04:03:00;;;;;;;6.88;2.85;;;12.90;99.90;;;;;;4951262;29;20067;-75
2022/11/09 04:05:26;;;;;;;2.45;1.15;;;13.00;99.90;;;;;;4933940;29;20031;-75
2022/11/09 04:07:56;;;;;;;6.18;1.88;;;13.00;99.90;;;;;;4951069;29;20027;-75
2022/11/09 04:10:24;;;;;;;8.07;2.13;;;13.00;99.90;;;;;;4934069;29;20087;-76
2022/11/09 04:12:50;;;;;;;2.75;1.92;;;13.00;99.90;;;;;;4951114;29;20032;-76
2022/11/09 04:15:16;;;;;;;4.50;2.58;;;13.00;99.90;;;;;;4933648;29;20095;-77
2022/11/09 04:17:45;;;;;;;7.47;1.52;;;13.00;99.90;;;;;;4950903;29;20036;-76
2022/11/09 04:20:11;;;;;;;8.02;2.28;;;13.00;99.90;;;;;;4950937;29;20087;-77
2022/11/09 04:22:37;;;;;;;3.42;2.00;;;12.90;99.90;;;;;;4933701;29;20040;-77
2022/11/09 04:25:04;;;;;;;2.33;2.13;;;12.90;99.90;;;;;;4950972;29;20080;-77
2022/11/09 04:27:30;;;;;;;2.85;2.20;;;12.90;99.90;;;;;;4933333;29;20055;-77
2022/11/09 04:29:55;;;;;;;6.88;2.33;;;12.90;99.90;;;;;;4950635;29;20043;-77
2022/11/09 04:32:21;;;;;;;1.27;1.08;;;12.90;99.90;;;;;;4950737;29;20055;-77
2022/11/09 04:34:47;;;;;;;7.93;1.08;;;12.90;99.90;;;;;;4950671;29;20052;-76
2022/11/09 04:37:13;;;;;;;7.97;2.08;;;12.90;99.90;;;;;;4933095;29;20024;-76
2022/11/09 04:39:39;;;;;;;3.38;1.27;;;12.70;99.90;;;;;;4950272;29;20048;-76
2022/11/09 04:42:05;;;;;;;2.25;1.25;;;12.60;99.90;;;;;;4950406;29;20505;-76
2022/11/09 04:44:30;;;;;;;4.35;1.67;;;12.60;99.90;;;;;;4950625;29;20035;-76
2022/11/09 04:46:56;;;;;;;2.45;1.13;;;12.50;99.90;;;;;;4950070;29;20091;-76
2022/11/09 04:49:22;;;;;;;3.20;1.80;;;12.40;99.90;;;;;;4917425;29;20047;-76
2022/11/09 04:51:48;;;;;;;13.05;2.33;;;12.30;99.90;;;;;;4950444;29;20179;-76
2022/11/09 04:54:14;;;;;;;7.82;1.85;;;12.20;99.90;;;;;;4933203;29;20621;-76
2022/11/09 04:56:40;;;;;;;7.45;1.45;;;12.30;99.90;;;;;;4932656;29;20024;-76
2022/11/09 04:59:05;;;;;;;6.22;1.70;;;12.30;99.90;;;;;;4950159;29;20055;-75
2022/11/09 05:01:31;;;;;;;3.53;1.80;;;12.30;99.90;;;;;;4950011;29;20034;-76
2022/11/09 05:03:57;;;;;;;8.68;2.08;;;12.20;99.90;;;;;;4950030;29;20060;-76
2022/11/09 05:06:31;;;;;;;5.15;1.30;;;12.10;99.90;;;;;;4932929;29;20085;-76
2022/11/09 05:08:59;;;;;;;4.57;2.17;;;12.10;99.90;;;;;;4932845;29;20050;-76
2022/11/09 05:11:25;;;;;;;3.75;1.60;;;12.10;99.90;;;;;;4949875;29;20046;-76
2022/11/09 05:13:51;;;;;;;5.55;2.22;;;12.10;99.90;;;;;;4949847;29;20019;-76
2022/11/09 05:16:18;;;;;;;7.45;1.38;;;12.10;99.90;;;;;;4916827;29;20433;-76
2022/11/09 05:18:44;;;;;;;5.85;2.30;;;12.00;99.90;;;;;;4949853;29;20036;-76
2022/11/09 05:21:11;;;;;;;9.85;2.42;;;12.10;99.90;;;;;;4949803;29;20035;-76
2022/11/09 05:26:21;;;;;;;2.65;1.83;;;12.20;99.90;;;;;;4931891;29;20193;-76
2022/11/09 05:28:47;;;;;;;3.33;2.22;;;12.20;99.90;;;;;;4932436;29;20040;-76
2022/11/09 05:31:13;;;;;;;6.43;1.95;;;12.30;99.90;;;;;;4932522;29;20035;-76
2022/11/09 05:33:39;;;;;;;3.75;1.60;;;12.30;99.90;;;;;;4932726;29;20123;-76
2022/11/09 05:36:05;;;;;;;3.13;1.77;;;12.30;99.90;;;;;;4948842;29;20027;-76
2022/11/09 05:38:31;;;;;;;4.40;1.83;;;12.20;99.90;;;;;;4931011;29;20494;-76
2022/11/09 05:40:57;;;;;;;8.88;2.47;;;12.20;99.90;;;;;;4948645;29;20032;-75
2022/11/09 05:43:23;;;;;;;5.43;2.10;;;12.20;99.90;;;;;;4949156;29;20028;-76
2022/11/09 05:45:49;;;;;;;7.70;1.55;;;12.10;99.90;;;;;;4949205;29;20055;-76
2022/11/09 05:48:16;;;;;;;2.92;1.55;;;12.10;99.90;;;;;;4932343;29;20035;-76
2022/11/09 05:50:43;;;;;;;3.05;2.00;;;12.00;99.90;;;;;;4932058;29;20035;-76
2022/11/09 05:53:14;;;;;;;3.75;1.17;;;11.90;99.90;;;;;;4916984;29;20034;-76
2022/11/09 05:55:40;;;;;;;13.25;3.22;;;11.90;99.90;;;;;;4948857;29;20027;-76
2022/11/09 05:58:06;;;;;;;1.48;1.33;;;11.80;99.90;;;;;;4948617;29;20020;-76
2022/11/09 06:00:32;;;;;;;9.13;2.05;;;11.80;99.90;;;;;;4949215;29;20038;-76
2022/11/09 06:03:07;;;;;;;5.03;2.42;;;11.80;99.90;;;;;;4948971;29;20043;-76
2022/11/09 06:05:37;;;;;;;6.28;1.92;;;11.80;99.90;;;;;;4947847;29;20036;-76
2022/11/09 06:08:05;;;;;;;2.30;1.90;;;11.60;99.90;;;;;;4928870;29;20111;-76
2022/11/09 06:10:30;;;;;;;7.05;1.88;;;11.60;99.90;;;;;;4930626;29;20071;-76
2022/11/09 06:12:57;;;;;;;4.60;1.30;;;11.60;99.90;;;;;;4948336;29;20031;-76
2022/11/09 06:15:24;;;;;;;6.55;2.25;;;11.60;99.90;;;;;;4930372;29;20523;-75
2022/11/09 06:17:52;;;;;;;2.33;1.17;;;11.50;99.90;;;;;;4948303;29;20027;-75
2022/11/09 06:20:17;;;;;;;5.95;2.38;;;11.50;99.90;;;;;;4930831;29;20086;-75
2022/11/09 06:22:43;;;;;;;3.97;1.75;;;11.60;99.90;;;;;;4948280;29;20039;-76
2022/11/09 06:25:09;;;;;;;4.75;2.35;;;11.50;99.90;;;;;;4915496;29;20043;-75
2022/11/09 06:27:35;;;;;;;7.32;1.90;;;11.50;99.90;;;;;;4938719;29;20039;-75
2022/11/09 06:30:00;;;;;;;6.70;1.80;;;11.40;99.90;;;;;;4946705;29;20036;-75
2022/11/09 06:32:27;;;;;;;6.90;2.85;;;11.40;99.90;;;;;;4904981;29;20039;-75
2022/11/09 06:34:53;;;;;;;4.30;1.52;;;11.40;99.90;;;;;;4936955;29;20385;-75
2022/11/09 06:37:18;;;;;;;3.17;2.22;;;11.40;99.90;;;;;;4934019;29;20028;-75
2022/11/09 06:39:46;;;;;;;8.93;1.38;;;11.40;99.90;;;;;;4930452;29;20051;-75
2022/11/09 06:42:11;;;;;;;2.75;1.23;;;11.40;99.90;;;;;;4947821;29;20031;-75
2022/11/09 06:44:37;;;;;;;2.15;1.25;;;11.40;99.90;;;;;;4947000;29;20039;-75
2022/11/09 06:47:03;;;;;;;2.60;1.70;;;11.40;99.90;;;;;;4947943;29;20497;-75
2022/11/09 06:49:29;;;;;;;3.33;1.40;;;11.40;99.90;;;;;;4947291;29;20043;-75
2022/11/09 06:51:54;;;;;;;1.50;1.33;;;11.40;99.90;;;;;;4947805;29;20028;-75
2022/11/09 06:54:21;;;;;;;1.92;1.80;;;11.40;99.90;;;;;;4930801;29;20032;-75
2022/11/09 06:56:47;;;;;;;1.88;1.35;;;11.40;99.90;;;;;;4930968;29;20384;-76
2022/11/09 06:59:12;;;;;;;5.28;2.97;;;11.40;99.90;;;;;;4947561;29;20088;-75
2022/11/09 07:01:38;;;;;;;3.20;1.35;;;11.40;99.90;;;;;;4947763;29;20051;-75
2022/11/09 07:04:04;;;;;;;4.85;1.80;;;11.40;99.90;;;;;;4947699;29;20055;-75
2022/11/09 07:06:30;;;;;;;5.28;1.67;;;11.50;99.90;;;;;;4931065;29;20039;-75
2022/11/09 07:08:56;;;;;;;8.05;2.35;;;11.50;99.90;;;;;;4947450;29;20027;-75
2022/11/09 07:11:21;;;;;;;5.95;3.03;;;11.50;99.90;;;;;;4951445;29;20042;-75
2022/11/09 07:13:48;;;;;;;9.00;3.15;;;11.50;99.90;;;;;;4945929;29;20095;-75
2022/11/09 07:16:16;;;;;;;2.45;1.95;;;11.50;99.90;;;;;;4938396;29;20083;-75
2022/11/09 07:18:43;;;;;;;2.35;1.55;;;11.50;99.90;;;;;;4934982;29;20039;-75
2022/11/09 07:21:09;;;;;;;2.83;1.42;;;11.50;99.90;;;;;;4950649;29;20055;-75
2022/11/09 07:23:35;;;;;;;4.30;2.95;;;11.60;99.90;;;;;;4951251;29;20036;-75
2022/11/09 07:26:01;;;;;;;4.55;3.28;;;11.60;99.90;;;;;;4951341;29;20079;-75
2022/11/09 07:28:27;;;;;;;7.88;1.77;;;11.80;99.90;;;;;;4931943;29;20397;-75
2022/11/09 07:30:53;;;;;;;2.97;2.00;;;11.90;99.90;;;;;;4936099;29;20093;-75
2022/11/09 07:33:21;;;;;;;7.35;2.35;;;12.20;99.90;;;;;;4939908;29;20211;-75
2022/11/09 07:35:48;;;;;;;6.63;1.75;;;12.40;99.90;;;;;;4936695;29;20035;-75
2022/11/09 07:38:18;;;;;;;3.05;2.72;;;12.00;99.90;;;;;;4934241;29;20382;-75
2022/11/09 07:40:44;;;;;;;3.95;3.20;;;12.60;99.90;;;;;;4944590;29;20048;-75
2022/11/09 07:43:11;;;;;;;3.28;2.20;;;12.60;99.90;;;;;;4950036;29;20040;-75
2022/11/09 07:45:38;;;;;;;5.05;1.45;;;12.60;99.90;;;;;;4912425;29;20050;-75
2022/11/09 07:48:07;;;;;;;3.53;1.80;;;12.70;99.90;;;;;;4945549;29;20036;-75
2022/11/09 07:50:34;;;;;;;4.25;2.72;;;12.80;99.90;;;;;;4917106;29;20032;-75
2022/11/09 07:53:01;;;;;;;5.57;2.17;;;13.00;99.90;;;;;;4915054;29;20031;-75
2022/11/09 07:55:28;;;;;;;4.80;1.67;;;13.80;99.90;;;;;;4926017;29;20032;-75
2022/11/09 07:58:03;;;;;;;6.85;1.52;;;15.20;99.90;;;;;;4949610;29;20031;-75
2022/11/09 08:00:30;;;;;;;4.82;1.70;;;16.40;99.90;;;;;;4932734;29;20095;-75
2022/11/09 08:02:56;;;;;;;7.80;2.55;;;16.60;99.90;;;;;;4932887;29;20038;-76
2022/11/09 08:05:22;;;;;;;9.05;2.33;;;17.60;99.90;;;;;;4949988;29;20055;-77
2022/11/09 08:07:54;;;;;;;2.88;1.42;;;18.00;99.90;;;;;;4949487;29;20119;-77
2022/11/09 08:10:21;;;;;;;5.85;1.95;;;18.10;99.90;;;;;;4949211;29;20072;-76
2022/11/09 08:13:02;;;;;;;3.10;1.80;;;17.70;99.90;;;;;;4949527;29;20032;-77
2022/11/09 08:15:28;;;;;;;2.08;1.40;;;17.40;99.90;;;;;;4939854;29;20381;-77
2022/11/09 08:17:59;;;;;;;2.80;1.30;;;17.40;99.90;;;;;;4949080;29;20032;-77
2022/11/09 08:20:24;;;;;;;5.88;2.25;;;17.10;99.90;;;;;;4930075;29;20043;-76
2022/11/09 08:22:50;;;;;;;6.13;1.73;;;17.10;99.90;;;;;;4936389;29;20035;-76
2022/11/09 08:25:16;;;;;;;5.18;1.90;;;17.90;99.90;;;;;;4936287;29;20039;-76
2022/11/09 08:27:42;;;;;;;4.47;1.95;;;18.30;99.90;;;;;;4948530;29;20449;-76
2022/11/09 08:30:14;;;;;;;1.98;0.88;;;17.90;99.90;;;;;;4948578;29;20461;-77
2022/11/09 08:32:41;;;;;;;3.58;1.23;;;17.60;99.90;;;;;;4948791;29;20030;-77
2022/11/09 08:35:09;;;;;;;2.67;1.52;;;18.00;99.90;;;;;;4930883;29;20024;-76
2022/11/09 08:37:38;;;;;;;9.13;4.65;;;18.40;99.90;;;;;;4949038;29;20028;-76
2022/11/09 08:40:05;;;;;;;11.63;7.30;;;18.20;99.90;;;;;;4911604;29;1109533;-76
2022/11/09 08:42:31;;;;;;;4.82;2.67;;;18.40;99.90;;;;;;4932593;29;20299;-77
2022/11/09 08:44:57;;;;;;;6.25;2.28;;;18.70;99.90;;;;;;4925684;29;20595;-76
2022/11/09 08:47:22;;;;;;;6.47;2.00;;;18.00;99.90;;;;;;4932486;29;20055;-76
2022/11/09 08:49:48;;;;;;;2.28;1.58;;;17.50;99.90;;;;;;4949616;29;20055;-76
2022/11/09 08:52:16;;;;;;;5.50;2.72;;;17.30;99.90;;;;;;4933025;29;20028;-77
2022/11/09 08:54:42;;;;;;;5.07;1.30;;;17.30;99.90;;;;;;4917368;29;20024;-76
2022/11/09 08:57:08;;;;;;;10.85;2.70;;;17.00;99.90;;;;;;4916342;29;20023;-76
2022/11/09 08:59:34;;;;;;;4.13;1.55;;;18.10;99.90;;;;;;4932520;29;20064;-76
2022/11/09 09:02:00;;;;;;;3.72;1.20;;;18.60;99.90;;;;;;4916880;29;20055;-76
2022/11/09 09:04:26;;;;;;;3.72;1.63;;;19.10;99.90;;;;;;4949649;29;20112;-76
2022/11/09 09:06:52;;;;;;;4.60;1.90;;;19.70;99.90;;;;;;4948649;29;20114;-76
2022/11/09 09:09:18;;;;;;;7.93;2.40;;;20.60;99.90;;;;;;4916730;29;20496;-76
2022/11/09 09:11:44;;;;;;;9.02;2.17;;;20.20;99.90;;;;;;4931887;29;20027;-76
2022/11/09 09:14:10;;;;;;;4.07;2.08;;;20.70;99.90;;;;;;4949048;29;20148;-76
2022/11/09 09:16:36;;;;;;;6.68;1.75;;;19.80;99.90;;;;;;4932289;29;20019;-75
2022/11/09 09:19:02;;;;;;;3.47;1.65;;;20.30;99.90;;;;;;4949004;29;20478;-76
2022/11/09 09:21:28;;;;;;;13.75;2.42;;;21.20;99.90;;;;;;4949421;29;20095;-76
2022/11/09 09:23:54;;;;;;;4.28;1.92;;;22.10;99.90;;;;;;4931666;29;20091;-76
2022/11/09 09:26:20;;;;;;;7.82;2.47;;;21.80;99.90;;;;;;4949234;29;20466;-76
2022/11/09 09:28:46;;;;;;;4.82;1.58;;;22.10;99.90;;;;;;4948261;29;20040;-76
2022/11/09 09:31:11;;;;;;;6.30;2.30;;;22.10;99.90;;;;;;4949351;29;20035;-76
2022/11/09 09:33:37;;;;;;;18.23;1.13;;;21.50;99.90;;;;;;4948019;29;20087;-76
2022/11/09 09:36:04;;;;;;;3.35;1.73;;;21.80;99.90;;;;;;4949462;29;20036;-76
2022/11/09 09:38:30;;;;;;;5.07;1.13;;;22.80;99.90;;;;;;4931492;29;20028;-76
2022/11/09 09:41:01;;;;;;;5.22;2.15;;;22.80;99.90;;;;;;4949019;29;20038;-76
2022/11/09 09:43:36;;;;;;;5.22;2.33;;;22.70;99.90;;;;;;4948412;29;20035;-76
2022/11/09 09:46:05;;;;;;;6.97;1.75;;;21.70;99.90;;;;;;4932082;29;20036;-76
2022/11/09 09:48:38;;;;;;;6.00;2.05;;;20.60;99.90;;;;;;4930503;29;20032;-76
2022/11/09 09:51:23;;;;;;;7.40;2.10;;;20.00;99.90;;;;;;4948397;29;20042;-76
2022/11/09 09:53:56;;;;;;;3.17;1.35;;;20.00;99.90;;;;;;4948746;29;20086;-76
2022/11/09 09:56:31;;;;;;;8.07;2.13;;;19.90;99.90;;;;;;4948656;29;20028;-76
2022/11/09 09:59:10;;;;;;;3.78;1.88;;;20.00;99.90;;;;;;4948784;29;20027;-75
2022/11/09 10:01:39;;;;;;;2.33;1.42;;;19.80;99.90;;;;;;4948669;29;20055;-76
2022/11/09 10:04:31;;;;;;;3.47;0.95;;;19.70;99.90;;;;;;4948582;29;20035;-76
2022/11/09 10:07:21;;;;;;;1.95;1.05;;;20.60;99.90;;;;;;4931765;29;20105;-76
2022/11/09 10:10:05;;;;;;;6.82;1.85;;;20.90;99.90;;;;;;4948417;29;20449;-76
2022/11/09 10:12:40;;;;;;;5.10;1.67;;;20.90;99.90;;;;;;4931534;29;20048;-76
2022/11/09 10:15:24;;;;;;;8.10;1.70;;;21.00;99.90;;;;;;4914867;29;20035;-76
2022/11/09 10:18:03;;;;;;;4.35;1.25;;;21.40;99.90;;;;;;4948134;29;20462;-76
2022/11/09 10:20:47;;;;;;;9.23;1.58;;;20.70;99.90;;;;;;4948899;29;20123;-76
2022/11/09 10:23:34;;;;;;;3.67;1.23;;;20.40;99.90;;;;;;4931319;29;20057;-76
2022/11/09 10:26:21;;;;;;;4.05;1.80;;;20.20;99.90;;;;;;4930883;29;20027;-76
2022/11/09 10:28:54;;;;;;;6.78;2.13;;;20.80;99.90;;;;;;4951171;29;20025;-75
2022/11/09 10:31:21;;;;;;;6.30;4.03;;;21.40;99.90;;;;;;4936939;29;20038;-76
2022/11/09 10:34:07;;;;;;;7.82;3.17;;;21.60;99.90;;;;;;4926478;29;20051;-76
2022/11/09 10:36:50;;;;;;;7.82;4.93;;;21.80;99.90;;;;;;4944164;29;20032;-76
2022/11/09 10:39:16;;;;;;;8.18;3.92;;;21.70;99.90;;;;;;4949725;29;20059;-76
2022/11/09 10:42:01;;;;;;;6.75;4.28;;;21.90;99.90;;;;;;4964866;29;20136;-77
2022/11/09 10:44:46;;;;;;;6.88;1.90;;;21.50;99.90;;;;;;4933359;29;20476;-77
2022/11/09 10:47:30;;;;;;;12.50;2.45;;;21.30;99.90;;;;;;4957961;29;20071;-77
2022/11/09 10:50:39;;;;;;;5.35;3.65;;;20.90;99.90;;;;;;4966286;29;20526;-77
2022/11/09 10:53:29;;;;;;;5.65;2.72;;;20.80;99.90;;;;;;4945004;29;20046;-77
2022/11/09 10:56:19;;;;;;;6.95;2.25;;;20.90;99.90;;;;;;4950517;29;20054;-77
2022/11/09 10:59:49;;;;;;;5.78;1.65;;;20.10;99.90;;;;;;4935395;29;20113;-76
2022/11/09 11:02:42;;;;;;;11.35;6.72;;;19.80;99.90;;;;;;4929020;29;20055;-77
2022/11/09 11:05:29;;;;;;;6.40;2.63;;;19.30;99.90;;;;;;4946235;29;20079;-76
2022/11/09 11:08:32;;;;;;;5.05;3.15;;;19.60;99.90;;;;;;4932586;29;20126;-76
2022/11/09 11:11:27;;;;;;;3.22;1.52;;;19.40;99.90;;;;;;4922316;29;20075;-76
2022/11/09 11:14:17;;;;;;;5.78;2.90;;;18.90;99.90;;;;;;4947376;29;20039;-76
2022/11/09 11:17:01;;;;;;;14.50;2.75;;;18.20;99.90;;;;;;4947982;29;20038;-77
2022/11/09 11:19:46;;;;;;;3.03;1.60;;;17.70;99.90;;;;;;4947686;29;20055;-76
2022/11/09 11:22:30;;;;;;;5.65;2.92;;;17.60;99.90;;;;;;4933252;29;20050;-76
2022/11/09 11:25:19;;;;;;;5.60;2.20;;;17.70;99.90;;;;;;4947584;29;20409;-76
2022/11/09 11:28:15;;;;;;;9.32;4.20;;;17.70;99.90;;;;;;4947936;29;20142;-76
2022/11/09 11:30:59;;;;;;;4.57;2.22;;;17.40;99.90;;;;;;4947820;29;20070;-76
2022/11/09 11:33:44;;;;;;;9.32;1.70;;;17.50;99.90;;;;;;4947810;29;20050;-76
2022/11/09 11:36:44;;;;;;;4.28;2.10;;;17.40;99.90;;;;;;4933133;29;20066;-76
2022/11/09 11:39:35;;;;;;;;;;;17.50;99.90;;;;;;4947306;29;20058;-76
2022/11/09 11:42:43;;;;;;;10.10;1.33;;;17.60;99.90;;;;;;4954131;29;19918;-76
2022/11/09 11:45:55;;;;;;;4.40;3.30;;;17.30;99.90;;;;;;4947223;29;20097;-76
2022/11/09 11:48:52;;;;;;;4.50;1.80;;;16.90;99.90;;;;;;4947580;29;20046;-76
2022/11/09 11:51:36;;;;;;;4.93;1.90;;;16.70;99.90;;;;;;4947591;29;20055;-76
2022/11/09 11:54:48;;;;;;;2.50;1.20;;;16.90;99.90;;;;;;4947106;29;20074;-75
2022/11/09 11:58:05;;;;;;;6.35;2.47;;;17.40;99.90;;;;;;4950902;29;20034;-76
2022/11/09 12:01:02;;;;;;;7.53;2.30;;;17.40;99.90;;;;;;4951223;29;20047;-75
2022/11/09 12:03:55;;;;;;;5.75;1.60;;;17.10;99.90;;;;;;4950668;29;20114;-75
2022/11/09 12:06:59;;;;;;;3.13;1.35;;;16.70;99.90;;;;;;4934233;29;20099;-75
2022/11/09 12:10:18;;;;;;;6.47;2.50;;;16.60;99.90;;;;;;4935449;29;20067;-75
2022/11/09 12:13:19;;;;;;;8.10;2.23;;;16.30;99.90;;;;;;4950907;29;20547;-75
2022/11/09 12:16:14;;;;;;;4.07;3.58;;;16.10;99.90;;;;;;4949914;29;20299;-75
2022/11/09 12:19:11;;;;;;;3.72;1.48;;;16.10;99.90;;;;;;4950154;29;20043;-76
2022/11/09 12:22:04;;;;;;;6.32;2.80;;;16.40;99.90;;;;;;4950515;29;20110;-75
2022/11/09 12:24:56;;;;;;;7.43;4.45;;;16.20;99.90;;;;;;4950095;29;20107;-75
2022/11/09 12:28:06;;;;;;;12.70;4.55;;;16.20;99.90;;;;;;4950450;29;20038;-75
2022/11/09 12:31:04;;;;;;;18.27;9.50;;;16.20;99.90;;;;;;4949609;29;20059;-75
2022/11/09 12:33:48;;;;;;;6.80;2.60;;;16.50;99.90;;;;;;4950490;29;20082;-75
2022/11/09 12:36:45;;;;;;;6.50;3.15;;;16.60;99.90;;;;;;4936137;29;20100;-75
2022/11/09 12:40:01;;;;;;;9.57;1.45;;;16.50;99.90;;;;;;4950121;29;20433;-75
2022/11/09 12:42:51;;;;;;;4.75;2.20;;;16.30;99.90;;;;;;4935813;29;20030;-75
2022/11/09 12:45:38;;;;;;;3.90;0.95;;;16.00;99.90;;;;;;4950057;29;20063;-77
2022/11/09 12:48:32;;;;;;;4.88;1.92;;;15.90;99.90;;;;;;4947012;29;20042;-76
2022/11/09 12:51:18;;;;;;;3.63;1.40;;;15.70;99.90;;;;;;4950148;29;20043;-77
2022/11/09 12:54:10;;;;;;;12.88;2.25;;;15.50;99.90;;;;;;4949876;29;20054;-76
2022/11/09 12:56:58;;;;;;;2.10;1.63;;;15.30;99.90;;;;;;4949366;29;20046;-77
2022/11/09 12:59:54;;;;;;;5.30;1.23;;;15.10;99.90;;;;;;4949700;29;20034;-76
2022/11/09 13:02:55;;;;;;;1.77;0.90;;;14.70;99.90;;;;;;4949935;29;20066;-77
2022/11/09 13:05:41;;;;;;;3.08;0.90;;;14.60;99.90;;;;;;4949858;29;20349;-76
2022/11/09 13:08:30;;;;;;;2.80;2.03;;;14.70;99.90;;;;;;4947681;29;20042;-76
2022/11/09 13:11:34;;;;;;;9.50;2.42;;;14.90;99.90;;;;;;4949834;29;20068;-76
2022/11/09 13:14:22;;;;;;;2.92;1.00;;;14.80;99.90;;;;;;4949782;29;20119;-77
2022/11/09 13:17:25;;;;;;;13.15;3.65;;;14.50;99.90;;;;;;4949585;29;20043;-77